Time;durP1;ratioP1;P1;durP2;ratioP2;P2;SDS_P1;SDS_P2;PMS_P1;PMS_P2;Temp;Humidity;BMP_temperature;BMP_pressure;BME280_temperature;BME280_humidity;BME280_pressure;Samples;Min_cycle;Max_cycle;Signal;HPM_P1;HPM_P2
2022/08/01 00:00:09;;;;;;;69.95;65.68;;;;;;;25.38;50.78;101530.44;4879903;29;20044;-67
2022/08/01 00:02:37;;;;;;;64.55;60.80;;;;;;;25.36;51.01;101527.97;4879381;29;20092;-67
2022/08/01 00:05:05;;;;;;;69.65;65.43;;;;;;;25.36;51.06;101535.47;4879636;29;20116;-67
2022/08/01 00:07:31;;;;;;;64.18;60.67;;;;;;;25.33;51.04;101534.16;4879742;29;20068;-67
2022/08/01 00:09:57;;;;;;;67.18;62.97;;;;;;;25.32;50.72;101535.28;4879282;29;20064;-67
2022/08/01 00:12:22;;;;;;;65.85;61.38;;;;;;;25.32;50.86;101535.28;4879376;29;20051;-67
2022/08/01 00:14:47;;;;;;;69.13;64.82;;;;;;;25.31;50.89;101539.19;4879555;29;20472;-66
2022/08/01 00:17:13;;;;;;;66.57;62.50;;;;;;;25.30;50.65;101532.06;4879148;29;20044;-67
2022/08/01 00:19:38;;;;;;;70.22;65.85;;;;;;;25.28;50.76;101537.09;4879356;29;20040;-67
2022/08/01 00:22:03;;;;;;;68.20;63.75;;;;;;;25.27;50.86;101532.66;4879329;29;20077;-67
2022/08/01 00:24:29;;;;;;;67.97;64.00;;;;;;;25.26;51.27;101537.41;4879551;29;20037;-67
2022/08/01 00:26:54;;;;;;;66.60;62.88;;;;;;;25.25;50.88;101541.31;4878106;29;20037;-67
2022/08/01 00:29:19;;;;;;;69.55;65.47;;;;;;;25.24;50.82;101538.84;4879288;29;20406;-67
2022/08/01 00:31:45;;;;;;;66.50;62.50;;;;;;;25.23;50.85;101551.06;4879651;29;20096;-66
2022/08/01 00:34:10;;;;;;;69.63;65.35;;;;;;;25.22;51.07;101549.41;4878760;29;20045;-67
2022/08/01 00:36:35;;;;;;;68.72;64.75;;;;;;;25.21;51.00;101551.38;4878895;29;20401;-68
2022/08/01 00:39:01;;;;;;;69.18;64.35;;;;;;;25.19;51.03;101553.66;4882120;29;20040;-68
2022/08/01 00:41:26;;;;;;;64.25;60.63;;;;;;;25.18;50.65;101553.97;4882771;29;20025;-67
2022/08/01 00:43:52;;;;;;;70.80;66.03;;;;;;;25.17;50.65;101550.38;4882364;29;20033;-67
2022/08/01 00:46:17;;;;;;;66.40;62.25;;;;;;;25.16;50.95;101554.28;4882370;29;20029;-67
2022/08/01 00:48:43;;;;;;;62.55;58.92;;;;;;;25.14;50.98;101556.53;4882592;29;20045;-66
2022/08/01 00:51:08;;;;;;;67.28;62.88;;;;;;;25.14;51.03;101551.00;4882048;29;20088;-67
2022/08/01 00:53:34;;;;;;;65.97;62.25;;;;;;;25.11;50.58;101548.88;4882788;29;20061;-67
2022/08/01 00:56:01;;;;;;;66.30;62.15;;;;;;;25.10;50.83;101543.66;4882444;29;20045;-67
2022/08/01 00:58:29;;;;;;;65.63;61.85;;;;;;;25.09;50.47;101547.59;4882040;29;20029;-67
2022/08/01 01:00:54;;;;;;;64.05;60.17;;;;;;;25.09;50.82;101547.59;4882066;29;20068;-67
2022/08/01 01:03:21;;;;;;;65.03;61.38;;;;;;;25.07;50.37;101558.94;4881842;29;20098;-68
2022/08/01 01:06:05;;;;;;;63.58;59.92;;;;;;;25.05;50.78;101551.00;4896440;29;20435;-67
2022/08/01 01:08:55;;;;;;;67.30;63.47;;;;;;;25.05;50.57;101541.91;4882097;29;20041;-68
2022/08/01 01:11:31;;;;;;;62.03;58.33;;;;;;;25.03;50.56;101535.88;4871333;29;20414;-68
2022/08/01 01:14:04;;;;;;;65.05;60.85;;;;;;;25.02;50.61;101537.81;4882154;29;20037;-67
2022/08/01 01:16:32;;;;;;;65.05;61.40;;;;;;;25.01;50.57;101536.19;4882450;29;20036;-67
2022/08/01 01:19:02;;;;;;;66.35;62.55;;;;;;;25.00;50.62;101534.56;4881383;29;20041;-67
2022/08/01 01:21:39;;;;;;;63.33;59.35;;;;;;;24.98;50.39;101539.59;4881952;29;20415;-67
2022/08/01 01:24:40;;;;;;;64.55;60.50;;;;;;;24.97;50.25;101540.75;4881421;29;20029;-66
2022/08/01 01:27:36;;;;;;;65.97;62.10;;;;;;;24.96;50.87;101547.38;4882069;29;20089;-67
2022/08/01 01:30:02;;;;;;;62.25;58.55;;;;;;;24.95;50.70;101553.25;4882365;29;20123;-67
2022/08/01 01:32:33;;;;;;;64.15;60.45;;;;;;;24.93;50.90;101545.28;4881329;29;20085;-66
2022/08/01 01:35:01;;;;;;;64.43;60.25;;;;;;;24.93;51.02;101541.69;4882005;29;20032;-69
2022/08/01 01:37:29;;;;;;;62.67;58.88;;;;;;;24.91;50.66;101533.72;4881430;29;20036;-67
2022/08/01 01:39:57;;;;;;;62.00;58.33;;;;;;;24.90;50.67;101536.81;4881440;29;20116;-68
2022/08/01 01:42:25;;;;;;;61.40;58.00;;;;;;;24.89;50.89;101535.97;4881694;29;20065;-67
2022/08/01 01:44:51;;;;;;;62.83;58.95;;;;;;;24.88;51.14;101537.13;4881222;29;20097;-68
2022/08/01 01:47:17;;;;;;;63.20;59.58;;;;;;;24.86;51.15;101539.38;4896187;29;20049;-68
2022/08/01 01:49:46;;;;;;;62.78;58.97;;;;;;;24.86;51.20;101544.09;4881517;29;20089;-67
2022/08/01 01:52:15;;;;;;;63.72;59.97;;;;;;;24.84;51.08;101539.69;4881789;29;20478;-67
2022/08/01 01:54:46;;;;;;;62.22;58.72;;;;;;;24.83;50.92;101542.81;4881192;29;20104;-68
2022/08/01 01:57:12;;;;;;;64.85;60.70;;;;;;;24.82;51.52;101542.00;4881403;29;20068;-68
2022/08/01 01:59:39;;;;;;;64.43;60.65;;;;;;;24.81;51.60;101534.00;4881001;29;20091;-68
2022/08/01 02:02:07;;;;;;;64.35;60.47;;;;;;;24.79;51.61;101537.09;4881083;29;20048;-68
2022/08/01 02:04:37;;;;;;;65.28;61.28;;;;;;;24.79;51.73;101537.09;4880329;29;20040;-67
2022/08/01 02:07:05;;;;;;;64.22;60.42;;;;;;;24.78;51.54;101535.47;4881195;29;20044;-68
2022/08/01 02:09:33;;;;;;;63.28;59.58;;;;;;;24.76;51.09;101523.09;4881473;29;20476;-68
2022/08/01 02:12:00;;;;;;;64.20;60.53;;;;;;;24.75;51.48;101527.81;4880945;29;20025;-68
2022/08/01 02:14:29;;;;;;;62.88;59.08;;;;;;;24.75;51.46;101529.78;4880803;29;20044;-67
2022/08/01 02:16:56;;;;;;;68.28;64.00;;;;;;;24.73;51.60;101541.13;4880789;29;20063;-67
2022/08/01 02:19:22;;;;;;;63.53;59.75;;;;;;;24.72;51.03;101535.91;4880991;29;20044;-69
2022/08/01 02:21:55;;;;;;;65.30;61.45;;;;;;;24.71;51.21;101542.59;4880391;29;20558;-68
2022/08/01 02:25:19;;;;;;;63.95;60.38;;;;;;;24.70;50.75;101546.50;4880795;29;20065;-68
2022/08/01 02:27:56;;;;;;;60.42;56.92;;;;;;;24.68;50.92;101540.47;4859703;29;20136;-67
2022/08/01 02:30:24;;;;;;;63.95;59.65;;;;;;;24.67;50.71;101544.34;4859722;29;20569;-67
2022/08/01 02:32:57;;;;;;;61.33;57.63;;;;;;;24.66;51.20;101542.72;4873918;29;20056;-67
2022/08/01 02:35:31;;;;;;;60.63;57.25;;;;;;;24.64;51.28;101540.28;4880820;29;20036;-67
2022/08/01 02:37:59;;;;;;;62.20;58.22;;;;;;;24.63;51.36;101540.63;4880712;29;20415;-67
2022/08/01 02:40:28;;;;;;;62.88;59.28;;;;;;;24.63;51.50;101538.66;4895055;29;20037;-67
2022/08/01 02:42:54;;;;;;;;;;;;;;;24.60;50.56;101537.34;4881080;29;20033;-67
2022/08/01 02:45:25;;;;;;;61.28;57.60;;;;;;;24.59;51.36;101541.25;4880340;29;19911;-67
2022/08/01 02:47:53;;;;;;;61.58;58.08;;;;;;;24.57;51.15;101532.47;4880359;29;20108;-66
2022/08/01 02:50:20;;;;;;;;;;;;;;;24.56;50.55;101541.06;4880680;29;20125;-68
2022/08/01 02:52:51;;;;;;;63.67;60.05;;;;;;;24.55;51.07;101542.22;4880536;29;19926;-68
2022/08/01 02:55:18;;;;;;;62.63;59.03;;;;;;;24.53;51.07;101534.22;4880053;29;20138;-67
2022/08/01 02:57:46;;;;;;;63.72;59.97;;;;;;;24.52;51.18;101529.84;4880026;29;20092;-68
2022/08/01 03:00:14;;;;;;;63.40;59.70;;;;;;;24.52;51.12;101532.59;4879918;29;20458;-68
2022/08/01 03:02:41;;;;;;;64.45;60.45;;;;;;;24.52;51.34;101535.38;4880409;29;20045;-67
2022/08/01 03:05:08;;;;;;;63.53;59.33;;;;;;;24.51;51.78;101543.97;4880416;29;20028;-67
2022/08/01 03:07:35;;;;;;;65.75;61.75;;;;;;;24.50;51.95;101536.81;4879983;29;20106;-68
2022/08/01 03:10:02;;;;;;;65.35;61.20;;;;;;;24.48;51.69;101537.13;4894149;29;20458;-68
2022/08/01 03:12:31;;;;;;;63.83;59.83;;;;;;;24.49;51.69;101537.94;4879956;29;20037;-67
2022/08/01 03:14:57;;;;;;;;;;;;;;;24.47;51.50;101543.78;4880244;29;20381;-68
2022/08/01 03:17:26;;;;;;;62.75;59.13;;;;;;;24.46;51.50;101541.34;4879728;29;19915;-67
2022/08/01 03:19:53;;;;;;;64.82;61.08;;;;;;;24.44;51.53;101547.13;4880389;29;20037;-67
2022/08/01 03:22:22;;;;;;;64.20;60.28;;;;;;;24.44;52.14;101551.84;4879776;29;20088;-66
2022/08/01 03:24:51;;;;;;;65.53;61.53;;;;;;;24.43;51.95;101553.81;4880247;29;20052;-67
2022/08/01 03:27:19;;;;;;;65.03;61.03;;;;;;;24.41;51.92;101556.88;4879696;29;20071;-67
2022/08/01 03:29:45;;;;;;;61.83;58.15;;;;;;;24.41;51.93;101554.09;4878317;29;20459;-68
2022/08/01 03:32:12;;;;;;;63.97;59.88;;;;;;;24.40;51.93;101552.50;4879402;29;20045;-68
2022/08/01 03:34:38;;;;;;;62.13;58.10;;;;;;;24.39;51.98;101544.50;4879667;29;20060;-68
2022/08/01 03:37:27;;;;;;;68.30;64.05;;;;;;;24.39;52.42;101539.00;4893902;29;20489;-68
2022/08/01 03:40:09;;;;;;;63.22;58.92;;;;;;;24.38;51.82;101543.69;4879968;29;20029;-68
2022/08/01 03:42:44;;;;;;;62.80;58.70;;;;;;;24.36;51.84;101548.72;4879839;29;20411;-67
2022/08/01 03:45:14;;;;;;;64.15;60.05;;;;;;;24.36;51.98;101545.16;4879594;29;20075;-67
2022/08/01 03:47:43;;;;;;;63.95;59.97;;;;;;;24.34;51.96;101547.41;4879821;29;20041;-67
2022/08/01 03:50:11;;;;;;;64.53;60.40;;;;;;;24.33;51.64;101552.13;4879518;29;20051;-67
2022/08/01 03:52:39;;;;;;;60.38;56.38;;;;;;;24.32;51.28;101546.94;4880270;29;20435;-66
2022/08/01 03:55:07;;;;;;;62.00;58.05;;;;;;;24.31;51.59;101554.38;4879587;29;20036;-67
2022/08/01 03:57:33;;;;;;;63.13;58.63;;;;;;;24.32;51.64;101555.22;4879416;29;20041;-67
2022/08/01 03:59:59;;;;;;;66.03;62.03;;;;;;;24.30;51.79;101563.00;4879481;29;20064;-67
2022/08/01 04:02:27;;;;;;;63.38;59.15;;;;;;;24.29;51.54;101559.44;4879639;29;20064;-67
2022/08/01 04:04:52;;;;;;;63.70;59.80;;;;;;;24.28;51.22;101563.31;4879538;29;20041;-67
2022/08/01 04:07:26;;;;;;;65.18;60.83;;;;;;;24.28;51.75;101556.97;4879373;29;20056;-67
2022/08/01 04:09:52;;;;;;;60.72;57.15;;;;;;;24.26;51.26;101562.00;4879488;29;20104;-67
2022/08/01 04:12:18;;;;;;;64.25;60.15;;;;;;;24.25;51.29;101563.94;4880741;29;20060;-67
2022/08/01 04:14:43;;;;;;;63.35;59.25;;;;;;;24.25;51.59;101554.84;4882100;29;20049;-68
2022/08/01 04:17:08;;;;;;;68.07;63.67;;;;;;;24.24;51.47;101553.19;4881550;29;20452;-67
2022/08/01 04:19:34;;;;;;;62.33;58.42;;;;;;;24.23;51.78;101554.34;4883110;29;20041;-68
2022/08/01 04:22:00;;;;;;;61.25;57.50;;;;;;;24.22;51.98;101559.06;4881582;29;20116;-67
2022/08/01 04:24:29;;;;;;;60.88;56.88;;;;;;;24.21;51.59;101562.13;4881460;29;20029;-67
2022/08/01 04:26:57;;;;;;;62.60;58.75;;;;;;;24.19;51.37;101557.75;4882780;29;20072;-68
2022/08/01 04:29:23;;;;;;;63.03;59.13;;;;;;;24.17;51.79;101554.47;4882716;29;20049;-67
2022/08/01 04:31:50;;;;;;;62.03;58.20;;;;;;;24.17;51.75;101560.00;4882637;29;20032;-67
2022/08/01 04:34:19;;;;;;;62.88;59.28;;;;;;;24.16;51.73;101555.59;4882633;29;20074;-68
2022/08/01 04:36:47;;;;;;;59.83;56.03;;;;;;;24.16;51.32;101566.63;4882867;29;20029;-66
2022/08/01 04:39:14;;;;;;;61.43;57.47;;;;;;;24.14;51.64;101563.41;4882517;29;20153;-67
2022/08/01 04:41:40;;;;;;;61.58;57.80;;;;;;;24.13;51.70;101567.25;4882524;29;20070;-67
2022/08/01 04:44:06;;;;;;;59.72;55.95;;;;;;;24.13;51.90;101561.75;4882472;29;20033;-68
2022/08/01 04:46:33;;;;;;;58.78;55.20;;;;;;;24.11;52.12;101564.00;4896548;29;20132;-66
2022/08/01 04:49:00;;;;;;;64.97;61.17;;;;;;;24.11;51.99;101565.94;4882455;29;20045;-67
2022/08/01 04:51:25;;;;;;;62.25;58.22;;;;;;;24.10;51.91;101573.41;4896269;29;20057;-67
2022/08/01 04:53:51;;;;;;;60.63;56.90;;;;;;;24.09;51.48;101577.31;4882576;29;20112;-67
2022/08/01 04:56:17;;;;;;;65.78;61.50;;;;;;;24.09;51.65;101587.53;4896286;29;20041;-68
2022/08/01 04:58:44;;;;;;;62.72;58.65;;;;;;;24.07;52.00;101587.84;4881891;29;20072;-68
2022/08/01 05:01:10;;;;;;;59.55;55.08;;;;;;;24.07;51.77;101596.13;4882096;29;20045;-70
2022/08/01 05:03:36;;;;;;;55.95;52.22;;;;;;;24.06;52.17;101594.47;4882185;29;20060;-68
2022/08/01 05:06:02;;;;;;;61.30;57.63;;;;;;;24.06;51.91;101596.44;4882113;29;20065;-67
2022/08/01 05:08:27;;;;;;;61.28;57.33;;;;;;;24.05;51.69;101598.38;4881733;29;20073;-68
2022/08/01 05:10:53;;;;;;;57.55;54.20;;;;;;;24.05;51.90;101606.66;4881985;29;20419;-68
2022/08/01 05:13:19;;;;;;;56.53;52.88;;;;;;;24.04;52.16;101604.22;4881951;29;20454;-68
2022/08/01 05:15:44;;;;;;;56.28;52.60;;;;;;;24.03;52.11;101605.34;4880687;29;20040;-68
2022/08/01 05:18:10;;;;;;;59.90;56.25;;;;;;;24.02;51.91;101601.78;4881546;29;20037;-69
2022/08/01 05:20:36;;;;;;;57.88;54.47;;;;;;;24.01;52.28;101597.38;4881757;29;20037;-69
2022/08/01 05:23:02;;;;;;;56.30;52.88;;;;;;;24.01;52.05;101602.88;4881490;29;20029;-67
2022/08/01 05:25:28;;;;;;;58.08;54.67;;;;;;;24.00;52.24;101598.50;4881699;29;20037;-67
2022/08/01 05:27:53;;;;;;;56.67;53.22;;;;;;;23.98;52.12;101596.06;4896025;29;20045;-67
2022/08/01 05:30:19;;;;;;;59.15;55.58;;;;;;;23.98;52.14;101596.06;4881588;29;20388;-67
2022/08/01 05:32:44;;;;;;;58.35;54.70;;;;;;;23.98;52.48;101598.81;4896611;29;20084;-67
2022/08/01 05:35:09;;;;;;;56.30;52.67;;;;;;;23.97;52.63;101596.38;4881589;29;20112;-67
2022/08/01 05:37:35;;;;;;;59.42;54.97;;;;;;;23.97;52.75;101596.38;4881371;29;20041;-67
2022/08/01 05:40:00;;;;;;;57.53;53.55;;;;;;;23.95;52.57;101591.16;4881471;29;20033;-68
2022/08/01 05:42:26;;;;;;;57.63;54.17;;;;;;;23.95;52.71;101596.69;4881299;29;20033;-67
2022/08/01 05:44:51;;;;;;;55.03;51.75;;;;;;;23.95;52.24;101599.44;4881690;29;20029;-68
2022/08/01 05:47:17;;;;;;;58.95;55.38;;;;;;;23.95;52.53;101604.16;4881697;29;20056;-67
2022/08/01 05:49:43;;;;;;;58.08;54.55;;;;;;;23.93;52.72;101607.22;4881260;29;20323;-66
2022/08/01 05:52:09;;;;;;;55.90;52.67;;;;;;;23.93;52.17;101600.88;4880889;29;20088;-67
2022/08/01 05:54:34;;;;;;;56.40;52.95;;;;;;;23.92;52.55;101605.59;4881204;29;20061;-67
2022/08/01 05:57:01;;;;;;;56.65;53.10;;;;;;;23.92;52.67;101604.78;4880879;29;20474;-67
2022/08/01 05:59:27;;;;;;;56.42;52.97;;;;;;;23.91;52.52;101609.50;4881025;29;20149;-67
2022/08/01 06:01:53;;;;;;;57.00;53.30;;;;;;;23.91;52.27;101600.38;4880809;29;20120;-67
2022/08/01 06:04:18;;;;;;;57.65;54.05;;;;;;;23.91;52.47;101603.13;4881425;29;20043;-67
2022/08/01 06:06:44;;;;;;;58.72;55.22;;;;;;;23.91;52.58;101617.78;4881298;29;20427;-67
2022/08/01 06:09:09;;;;;;;57.83;54.72;;;;;;;23.90;52.22;101613.38;4880653;29;20060;-68
2022/08/01 06:11:34;;;;;;;54.90;52.00;;;;;;;23.89;52.19;101619.19;4880785;29;20521;-67
2022/08/01 06:14:00;;;;;;;54.83;51.88;;;;;;;23.89;52.31;101616.41;4880807;29;20529;-67
2022/08/01 06:16:25;;;;;;;55.35;52.30;;;;;;;23.88;52.30;101614.81;4880786;29;20068;-68
2022/08/01 06:18:51;;;;;;;56.88;53.75;;;;;;;23.88;51.87;101615.59;4880697;29;20037;-67
2022/08/01 06:21:16;;;;;;;56.80;53.72;;;;;;;23.86;52.09;101606.81;4881198;29;20036;-69
2022/08/01 06:23:42;;;;;;;52.85;50.03;;;;;;;23.87;51.81;101608.47;4880936;29;20033;-68
2022/08/01 06:26:08;;;;;;;53.33;50.53;;;;;;;23.86;52.40;101628.91;4880266;29;20101;-67
2022/08/01 06:28:33;;;;;;;55.63;52.63;;;;;;;23.86;51.74;101615.09;4879945;29;20047;-68
2022/08/01 06:30:59;;;;;;;53.25;50.45;;;;;;;23.86;52.20;101623.38;4880240;29;20397;-67
2022/08/01 06:33:25;;;;;;;53.63;50.63;;;;;;;23.86;52.06;101626.13;4880070;29;20060;-67
2022/08/01 06:35:50;;;;;;;58.78;55.75;;;;;;;23.86;52.26;101619.81;4879454;29;20527;-67
2022/08/01 06:38:16;;;;;;;51.10;48.30;;;;;;;23.85;52.16;101624.53;4879785;29;20037;-68
2022/08/01 06:40:41;;;;;;;53.85;51.13;;;;;;;23.85;52.27;101620.94;4894558;29;20029;-68
2022/08/01 06:43:06;;;;;;;53.90;51.20;;;;;;;23.84;52.51;101622.91;4879437;29;20056;-67
2022/08/01 06:45:32;;;;;;;55.35;52.58;;;;;;;23.84;52.35;101625.66;4879804;29;20045;-66
2022/08/01 06:47:57;;;;;;;53.55;50.95;;;;;;;23.83;52.20;101635.03;4880008;29;20037;-66
2022/08/01 06:50:23;;;;;;;57.13;54.10;;;;;;;23.82;51.98;101633.44;4894305;29;20041;-67
2022/08/01 06:52:48;;;;;;;52.08;49.50;;;;;;;23.82;51.92;101629.84;4880545;29;20132;-67
2022/08/01 06:55:14;;;;;;;51.33;48.83;;;;;;;23.82;52.01;101638.94;4894394;29;20069;-67
2022/08/01 06:57:50;;;;;;;51.80;49.25;;;;;;;23.83;51.77;101632.28;4879828;29;20462;-67
2022/08/01 07:00:20;;;;;;;54.10;51.35;;;;;;;23.82;51.76;101632.63;4880178;29;20036;-67
2022/08/01 07:02:46;;;;;;;50.80;48.20;;;;;;;23.82;52.15;101638.13;4879777;29;20037;-66
2022/08/01 07:05:12;;;;;;;55.72;52.92;;;;;;;23.83;51.73;101634.22;4879606;29;20093;-66
2022/08/01 07:07:38;;;;;;;51.78;49.08;;;;;;;23.83;51.84;101639.75;4879610;29;20037;-67
2022/08/01 07:10:04;;;;;;;51.92;49.38;;;;;;;23.83;51.70;101640.56;4879505;29;20088;-67
2022/08/01 07:12:30;;;;;;;55.65;52.85;;;;;;;23.82;52.01;101644.47;4879443;29;20037;-68
2022/08/01 07:14:55;;;;;;;53.38;50.58;;;;;;;23.82;51.73;101647.22;4879331;29;20120;-67
2022/08/01 07:17:20;;;;;;;54.53;51.78;;;;;;;23.82;51.72;101646.41;4879253;29;20041;-67
2022/08/01 07:19:47;;;;;;;55.45;52.65;;;;;;;23.82;51.39;101649.16;4894227;29;20106;-67
2022/08/01 07:22:13;;;;;;;55.28;52.17;;;;;;;23.81;51.34;101642.81;4893431;29;20545;-67
2022/08/01 07:24:39;;;;;;;54.40;51.70;;;;;;;23.81;51.23;101648.31;4878995;29;20417;-68
2022/08/01 07:27:04;;;;;;;53.47;50.78;;;;;;;23.80;50.94;101654.97;4877978;29;20035;-68
2022/08/01 07:29:30;;;;;;;54.55;51.75;;;;;;;23.81;51.29;101662.13;4879484;29;20096;-68
2022/08/01 07:31:57;;;;;;;55.03;52.35;;;;;;;23.82;51.14;101657.44;4878935;29;20474;-67
2022/08/01 07:34:24;;;;;;;55.63;52.92;;;;;;;23.80;51.52;101657.75;4893588;29;20037;-68
2022/08/01 07:36:51;;;;;;;55.28;52.60;;;;;;;23.81;51.03;101653.03;4879575;29;20045;-68
2022/08/01 07:39:16;;;;;;;52.58;49.95;;;;;;;23.80;50.91;101660.50;4879029;29;20037;-68
2022/08/01 07:41:42;;;;;;;57.38;54.58;;;;;;;23.81;51.08;101653.03;4879011;29;20437;-68
2022/08/01 07:44:07;;;;;;;55.13;52.33;;;;;;;23.80;51.11;101649.47;4879027;29;20041;-66
2022/08/01 07:46:32;;;;;;;52.03;49.22;;;;;;;23.80;51.39;101663.25;4879928;29;20398;-67
2022/08/01 07:48:58;;;;;;;52.83;50.33;;;;;;;23.81;50.70;101672.34;4882925;29;20088;-68
2022/08/01 07:51:23;;;;;;;53.22;50.63;;;;;;;23.80;50.96;101656.94;4882918;29;20055;-68
2022/08/01 07:53:49;;;;;;;52.90;50.40;;;;;;;23.81;50.88;101661.31;4897302;29;20041;-68
2022/08/01 07:56:14;;;;;;;55.08;52.38;;;;;;;23.81;51.20;101666.81;4882830;29;20132;-66
2022/08/01 07:58:40;;;;;;;52.05;49.47;;;;;;;23.80;51.20;101668.78;4882596;29;20044;-68
2022/08/01 08:01:05;;;;;;;56.40;53.60;;;;;;;23.80;51.33;101663.25;4883325;29;20037;-68
2022/08/01 08:03:30;;;;;;;54.45;51.75;;;;;;;23.82;51.59;101671.25;4882610;29;20062;-68
2022/08/01 08:05:56;;;;;;;55.15;52.53;;;;;;;23.81;51.04;101669.59;4882759;29;20112;-68
2022/08/01 08:08:21;;;;;;;54.40;51.80;;;;;;;23.81;51.02;101664.06;4882626;29;20045;-67
2022/08/01 08:10:47;;;;;;;52.53;49.92;;;;;;;23.82;51.52;101668.47;4882500;29;20116;-68
2022/08/01 08:13:12;;;;;;;53.03;50.47;;;;;;;23.83;51.56;101642.50;4882516;29;20116;-67
2022/08/01 08:15:38;;;;;;;53.92;51.28;;;;;;;23.83;51.44;101648.03;4882466;29;20033;-68
2022/08/01 08:18:04;;;;;;;53.45;50.85;;;;;;;23.83;51.34;101648.03;4882790;29;20040;-69
2022/08/01 08:20:29;;;;;;;53.08;50.40;;;;;;;23.83;51.97;101648.84;4882260;29;20048;-69
2022/08/01 08:22:55;;;;;;;51.70;49.10;;;;;;;23.85;52.10;101654.06;4896715;29;20033;-68
2022/08/01 08:25:21;;;;;;;55.50;52.65;;;;;;;23.86;51.74;101656.50;4882342;29;20382;-66
2022/08/01 08:27:47;;;;;;;51.20;48.58;;;;;;;23.86;52.12;101659.25;4882895;29;20047;-68
2022/08/01 08:30:13;;;;;;;55.80;53.05;;;;;;;23.88;51.81;101661.72;4881998;29;20068;-68
2022/08/01 08:32:39;;;;;;;57.50;54.75;;;;;;;23.90;51.85;101664.97;4882097;29;20101;-68
2022/08/01 08:35:06;;;;;;;54.30;51.75;;;;;;;23.91;51.99;101659.16;4881587;29;20045;-68
2022/08/01 08:37:31;;;;;;;55.15;52.47;;;;;;;23.94;51.68;101666.81;4882198;29;20115;-67
2022/08/01 08:39:57;;;;;;;52.97;50.38;;;;;;;23.95;51.59;101657.38;4882023;29;20124;-67
2022/08/01 08:42:22;;;;;;;53.15;50.65;;;;;;;23.98;51.31;101665.03;4882073;29;20473;-68
2022/08/01 08:44:48;;;;;;;53.88;51.28;;;;;;;24.02;51.08;101670.78;4896930;29;20052;-68
2022/08/01 08:47:14;;;;;;;53.63;51.03;;;;;;;24.05;51.38;101670.16;4881669;29;20049;-71
2022/08/01 08:49:42;;;;;;;53.25;50.65;;;;;;;24.09;50.85;101670.31;4881762;29;20029;-68
2022/08/01 08:52:09;;;;;;;53.75;51.15;;;;;;;24.13;51.14;101668.59;4881639;29;20060;-68
2022/08/01 08:54:36;;;;;;;53.25;50.65;;;;;;;24.18;50.73;101662.94;4882007;29;20037;-68
2022/08/01 08:57:02;;;;;;;57.83;55.10;;;;;;;24.24;50.78;101663.63;4881326;29;20459;-68
2022/08/01 08:59:28;;;;;;;53.20;50.70;;;;;;;24.28;50.95;101664.66;4881011;29;20033;-68
2022/08/01 09:01:55;;;;;;;56.92;54.22;;;;;;;24.31;50.41;101667.59;4881679;29;20041;-68
2022/08/01 09:04:24;;;;;;;53.38;50.78;;;;;;;24.35;50.34;101663.06;4881696;29;20191;-68
2022/08/01 09:06:49;;;;;;;56.80;54.10;;;;;;;24.40;49.86;101665.72;4881715;29;20056;-68
2022/08/01 09:09:15;;;;;;;56.15;53.45;;;;;;;24.45;50.18;101666.72;4896680;29;20467;-67
2022/08/01 09:11:40;;;;;;;57.50;54.70;;;;;;;24.49;50.23;101664.97;4881634;29;20033;-67
2022/08/01 09:14:11;;;;;;;56.65;53.85;;;;;;;24.53;50.16;101669.56;4881692;29;20037;-68
2022/08/01 09:16:42;;;;;;;56.45;53.75;;;;;;;24.57;49.82;101664.25;4881352;29;20029;-69
2022/08/01 09:19:14;;;;;;;58.05;55.25;;;;;;;24.63;49.54;101673.22;4881602;29;20076;-68
2022/08/01 09:21:54;;;;;;;56.03;53.33;;;;;;;24.69;49.36;101677.47;4881206;29;20033;-67
2022/08/01 09:24:19;;;;;;;56.05;53.35;;;;;;;24.74;49.91;101680.09;4881430;29;20028;-68
2022/08/01 09:26:45;;;;;;;54.88;52.22;;;;;;;24.80;49.75;101687.13;4881457;29;20479;-68
2022/08/01 09:29:18;;;;;;;59.85;56.92;;;;;;;24.86;49.70;101685.84;4881230;29;20119;-68
2022/08/01 09:31:44;;;;;;;58.03;55.13;;;;;;;24.92;49.40;101695.66;4881559;29;20033;-68
2022/08/01 09:34:10;;;;;;;57.72;55.03;;;;;;;24.97;49.04;101691.91;4880165;29;20033;-67
2022/08/01 09:36:57;;;;;;;58.65;55.97;;;;;;;25.01;48.86;101690.97;4881400;29;20052;-68
2022/08/01 09:39:36;;;;;;;54.80;52.15;;;;;;;25.08;48.75;101686.94;4881675;29;20033;-69
2022/08/01 09:42:21;;;;;;;57.08;54.47;;;;;;;25.11;49.10;101689.88;4881613;29;20084;-69
2022/08/01 09:44:47;;;;;;;54.67;52.08;;;;;;;25.16;48.79;101697.22;4881269;29;20037;-68
2022/08/01 09:47:14;;;;;;;57.78;55.08;;;;;;;25.21;48.80;101699.88;4881281;29;20041;-68
2022/08/01 09:49:41;;;;;;;59.35;56.42;;;;;;;25.24;48.81;101696.47;4880887;29;20037;-69
2022/08/01 09:52:17;;;;;;;59.53;56.78;;;;;;;25.29;48.98;101701.03;4880620;29;20060;-69
2022/08/01 09:54:53;;;;;;;59.30;56.33;;;;;;;25.33;48.86;101713.91;4880776;29;20139;-69
2022/08/01 09:57:19;;;;;;;62.22;59.33;;;;;;;25.36;48.86;101707.75;4881505;29;20089;-68
2022/08/01 09:59:50;;;;;;;59.17;56.40;;;;;;;25.41;49.02;101715.91;4880699;29;20026;-68
2022/08/01 10:02:35;;;;;;;59.00;56.00;;;;;;;25.44;48.54;101711.66;4879496;29;20131;-69
2022/08/01 10:05:04;;;;;;;60.38;57.45;;;;;;;25.47;48.68;101720.13;4880778;29;20064;-68
2022/08/01 10:07:29;;;;;;;59.35;56.50;;;;;;;25.50;48.53;101713.16;4879515;29;20049;-68
2022/08/01 10:09:55;;;;;;;60.67;57.78;;;;;;;25.54;48.67;101719.69;4879989;29;20056;-69
2022/08/01 10:12:23;;;;;;;61.97;59.08;;;;;;;25.61;49.02;101716.44;4880932;29;20064;-70
2022/08/01 10:14:50;;;;;;;61.13;58.17;;;;;;;25.65;48.40;101718.25;4880250;29;20434;-68
2022/08/01 10:17:17;;;;;;;62.72;59.83;;;;;;;25.71;48.55;101727.22;4880748;29;20081;-68
2022/08/01 10:19:43;;;;;;;65.88;62.78;;;;;;;25.75;48.82;101727.38;4880363;29;20041;-69
2022/08/01 10:22:13;;;;;;;59.10;56.40;;;;;;;25.79;48.35;101729.19;4880932;29;20036;-68
2022/08/01 10:24:40;;;;;;;62.95;59.88;;;;;;;25.82;48.53;101730.50;4880989;29;20033;-70
2022/08/01 10:27:10;;;;;;;60.05;57.25;;;;;;;25.85;48.46;101722.38;4880164;29;20577;-70
2022/08/01 10:29:57;;;;;;;62.35;59.15;;;;;;;25.92;48.14;101726.63;4880643;29;20332;-67
2022/08/01 10:32:22;;;;;;;62.55;59.65;;;;;;;25.97;47.88;101723.72;4894841;29;20077;-68
2022/08/01 10:34:49;;;;;;;61.55;58.65;;;;;;;26.02;48.30;101735.44;4879852;29;20478;-70
2022/08/01 10:37:16;;;;;;;60.47;57.70;;;;;;;26.06;47.92;101730.09;4880067;29;20120;-68
2022/08/01 10:39:43;;;;;;;67.60;64.32;;;;;;;26.11;47.83;101729.94;4879749;29;20184;-68
2022/08/01 10:42:10;;;;;;;63.40;60.42;;;;;;;26.17;47.96;101720.31;4879777;29;20140;-69
2022/08/01 10:44:36;;;;;;;62.08;59.10;;;;;;;26.23;47.64;101723.72;4879851;29;20033;-68
2022/08/01 10:47:10;;;;;;;68.47;64.90;;;;;;;26.28;47.62;101727.16;4879734;29;20076;-68
2022/08/01 10:49:42;;;;;;;67.25;64.00;;;;;;;26.34;47.49;101720.31;4879748;29;20036;-69
2022/08/01 10:52:14;;;;;;;67.10;64.10;;;;;;;26.40;47.13;101725.69;4879547;29;20053;-68
2022/08/01 10:54:40;;;;;;;66.50;63.10;;;;;;;26.45;47.09;101725.53;4880410;29;20036;-69
2022/08/01 10:57:06;;;;;;;63.35;60.25;;;;;;;26.51;47.14;101727.81;4879121;29;20538;-68
2022/08/01 10:59:33;;;;;;;66.72;63.42;;;;;;;26.57;47.28;101725.72;4879481;29;20497;-67
2022/08/01 11:02:00;;;;;;;67.05;63.75;;;;;;;26.62;46.53;101731.09;4879236;29;20455;-68
2022/08/01 11:04:53;;;;;;;71.47;68.07;;;;;;;26.68;46.55;101737.25;4879542;29;20041;-68
2022/08/01 11:07:35;;;;;;;66.35;63.22;;;;;;;26.73;46.45;101737.91;4880003;29;20058;-69
2022/08/01 11:10:15;;;;;;;65.80;62.70;;;;;;;26.80;46.66;101731.88;4879676;29;20049;-68
2022/08/01 11:12:42;;;;;;;69.07;65.82;;;;;;;26.86;46.77;101744.44;4879708;29;20040;-68